sensor_id;sensor_type;location;lat;lon;timestamp;P1;durP1;ratioP1;P2;durP2;ratioP2
26620;SDS011;14253;44.840;10.444;2023-05-07T00:00:21;30.00;;;25.63;;
26620;SDS011;14253;44.840;10.444;2023-05-07T00:02:47;29.05;;;24.98;;
26620;SDS011;14253;44.840;10.444;2023-05-07T00:05:13;29.52;;;24.10;;
26620;SDS011;14253;44.840;10.444;2023-05-07T00:07:39;31.08;;;25.35;;
26620;SDS011;14253;44.840;10.444;2023-05-07T00:10:05;29.80;;;23.42;;
26620;SDS011;14253;44.840;10.444;2023-05-07T00:12:32;25.13;;;22.42;;
26620;SDS011;14253;44.840;10.444;2023-05-07T00:15:02;28.63;;;24.67;;
26620;SDS011;14253;44.840;10.444;2023-05-07T00:17:29;27.33;;;23.40;;
26620;SDS011;14253;44.840;10.444;2023-05-07T00:19:55;26.83;;;19.77;;
26620;SDS011;14253;44.840;10.444;2023-05-07T00:22:21;28.77;;;22.52;;
26620;SDS011;14253;44.840;10.444;2023-05-07T00:24:47;28.73;;;22.65;;
26620;SDS011;14253;44.840;10.444;2023-05-07T00:27:13;25.75;;;21.13;;
26620;SDS011;14253;44.840;10.444;2023-05-07T00:29:39;27.80;;;22.15;;
26620;SDS011;14253;44.840;10.444;2023-05-07T00:32:05;24.25;;;21.65;;
26620;SDS011;14253;44.840;10.444;2023-05-07T00:34:31;28.45;;;25.25;;
26620;SDS011;14253;44.840;10.444;2023-05-07T00:36:57;28.90;;;24.10;;
26620;SDS011;14253;44.840;10.444;2023-05-07T00:39:23;27.40;;;23.27;;
26620;SDS011;14253;44.840;10.444;2023-05-07T00:41:48;25.92;;;21.90;;
26620;SDS011;14253;44.840;10.444;2023-05-07T00:44:16;27.35;;;22.20;;
26620;SDS011;14253;44.840;10.444;2023-05-07T00:46:43;24.80;;;20.42;;
26620;SDS011;14253;44.840;10.444;2023-05-07T00:49:10;26.63;;;21.27;;
26620;SDS011;14253;44.840;10.444;2023-05-07T00:51:36;34.60;;;25.50;;
26620;SDS011;14253;44.840;10.444;2023-05-07T00:54:02;30.98;;;27.20;;
26620;SDS011;14253;44.840;10.444;2023-05-07T00:56:29;32.58;;;27.00;;
26620;SDS011;14253;44.840;10.444;2023-05-07T00:58:55;25.45;;;22.42;;
26620;SDS011;14253;44.840;10.444;2023-05-07T01:01:21;30.77;;;26.80;;
26620;SDS011;14253;44.840;10.444;2023-05-07T01:03:47;30.90;;;25.33;;
26620;SDS011;14253;44.840;10.444;2023-05-07T01:06:13;32.17;;;28.02;;
26620;SDS011;14253;44.840;10.444;2023-05-07T01:08:42;32.00;;;27.10;;
26620;SDS011;14253;44.840;10.444;2023-05-07T01:11:08;36.72;;;28.35;;
26620;SDS011;14253;44.840;10.444;2023-05-07T01:13:36;33.60;;;27.55;;
26620;SDS011;14253;44.840;10.444;2023-05-07T01:16:03;34.08;;;27.65;;
26620;SDS011;14253;44.840;10.444;2023-05-07T01:18:30;32.72;;;25.73;;
26620;SDS011;14253;44.840;10.444;2023-05-07T01:20:56;31.30;;;25.38;;
26620;SDS011;14253;44.840;10.444;2023-05-07T01:23:25;36.13;;;30.63;;
26620;SDS011;14253;44.840;10.444;2023-05-07T01:25:54;37.70;;;29.25;;
26620;SDS011;14253;44.840;10.444;2023-05-07T01:28:22;29.70;;;26.15;;
26620;SDS011;14253;44.840;10.444;2023-05-07T01:30:55;32.85;;;28.27;;
26620;SDS011;14253;44.840;10.444;2023-05-07T01:33:26;35.40;;;29.55;;
26620;SDS011;14253;44.840;10.444;2023-05-07T01:35:56;35.80;;;28.42;;
26620;SDS011;14253;44.840;10.444;2023-05-07T01:38:26;31.20;;;27.88;;
26620;SDS011;14253;44.840;10.444;2023-05-07T01:40:53;29.27;;;25.52;;
26620;SDS011;14253;44.840;10.444;2023-05-07T01:43:20;30.00;;;26.30;;
26620;SDS011;14253;44.840;10.444;2023-05-07T01:45:46;30.80;;;27.02;;
26620;SDS011;14253;44.840;10.444;2023-05-07T01:48:14;30.88;;;26.85;;
26620;SDS011;14253;44.840;10.444;2023-05-07T01:50:41;35.15;;;27.85;;
26620;SDS011;14253;44.840;10.444;2023-05-07T01:53:08;35.83;;;28.92;;
26620;SDS011;14253;44.840;10.444;2023-05-07T01:55:34;34.53;;;28.33;;
26620;SDS011;14253;44.840;10.444;2023-05-07T01:58:02;35.13;;;28.95;;
26620;SDS011;14253;44.840;10.444;2023-05-07T02:00:29;32.30;;;28.00;;
26620;SDS011;14253;44.840;10.444;2023-05-07T02:02:55;35.10;;;30.05;;
26620;SDS011;14253;44.840;10.444;2023-05-07T02:05:47;35.92;;;27.42;;
26620;SDS011;14253;44.840;10.444;2023-05-07T02:08:34;36.58;;;30.90;;
26620;SDS011;14253;44.840;10.444;2023-05-07T02:11:00;33.75;;;28.42;;
26620;SDS011;14253;44.840;10.444;2023-05-07T02:13:31;33.25;;;27.67;;
26620;SDS011;14253;44.840;10.444;2023-05-07T02:15:59;32.15;;;27.35;;
26620;SDS011;14253;44.840;10.444;2023-05-07T02:18:26;35.00;;;28.42;;
26620;SDS011;14253;44.840;10.444;2023-05-07T02:20:52;33.00;;;29.38;;
26620;SDS011;14253;44.840;10.444;2023-05-07T02:23:18;37.20;;;28.95;;
26620;SDS011;14253;44.840;10.444;2023-05-07T02:25:44;37.45;;;30.85;;
26620;SDS011;14253;44.840;10.444;2023-05-07T02:28:11;35.65;;;31.70;;
26620;SDS011;14253;44.840;10.444;2023-05-07T02:30:47;34.72;;;29.42;;
26620;SDS011;14253;44.840;10.444;2023-05-07T02:33:13;33.55;;;27.50;;
26620;SDS011;14253;44.840;10.444;2023-05-07T02:35:40;36.53;;;29.75;;
26620;SDS011;14253;44.840;10.444;2023-05-07T02:38:06;33.15;;;29.55;;
26620;SDS011;14253;44.840;10.444;2023-05-07T02:40:33;32.50;;;27.73;;
26620;SDS011;14253;44.840;10.444;2023-05-07T02:43:04;39.45;;;32.95;;
26620;SDS011;14253;44.840;10.444;2023-05-07T02:45:31;41.33;;;33.45;;
26620;SDS011;14253;44.840;10.444;2023-05-07T02:47:58;35.90;;;30.75;;
26620;SDS011;14253;44.840;10.444;2023-05-07T02:50:24;47.55;;;36.47;;
26620;SDS011;14253;44.840;10.444;2023-05-07T02:52:52;41.90;;;33.78;;
26620;SDS011;14253;44.840;10.444;2023-05-07T02:55:18;45.35;;;36.90;;
26620;SDS011;14253;44.840;10.444;2023-05-07T02:57:44;41.53;;;34.15;;
26620;SDS011;14253;44.840;10.444;2023-05-07T03:00:13;40.00;;;34.00;;
26620;SDS011;14253;44.840;10.444;2023-05-07T03:02:47;39.22;;;33.75;;
26620;SDS011;14253;44.840;10.444;2023-05-07T03:05:14;39.92;;;34.40;;
26620;SDS011;14253;44.840;10.444;2023-05-07T03:07:40;41.78;;;32.83;;
26620;SDS011;14253;44.840;10.444;2023-05-07T03:10:09;44.08;;;33.08;;
26620;SDS011;14253;44.840;10.444;2023-05-07T03:12:35;37.10;;;32.05;;
26620;SDS011;14253;44.840;10.444;2023-05-07T03:15:01;38.63;;;33.03;;
26620;SDS011;14253;44.840;10.444;2023-05-07T03:17:27;39.50;;;31.42;;
26620;SDS011;14253;44.840;10.444;2023-05-07T03:19:53;38.10;;;30.35;;
26620;SDS011;14253;44.840;10.444;2023-05-07T03:22:19;37.95;;;29.55;;
26620;SDS011;14253;44.840;10.444;2023-05-07T03:24:45;33.45;;;29.73;;
26620;SDS011;14253;44.840;10.444;2023-05-07T03:27:11;39.60;;;31.73;;
26620;SDS011;14253;44.840;10.444;2023-05-07T03:29:37;36.95;;;28.58;;
26620;SDS011;14253;44.840;10.444;2023-05-07T03:32:03;35.85;;;28.85;;
26620;SDS011;14253;44.840;10.444;2023-05-07T03:34:30;34.20;;;29.00;;
26620;SDS011;14253;44.840;10.444;2023-05-07T03:36:56;39.65;;;30.25;;
26620;SDS011;14253;44.840;10.444;2023-05-07T03:39:23;35.90;;;29.45;;
26620;SDS011;14253;44.840;10.444;2023-05-07T03:41:49;36.40;;;29.00;;
26620;SDS011;14253;44.840;10.444;2023-05-07T03:44:15;35.30;;;28.17;;
26620;SDS011;14253;44.840;10.444;2023-05-07T03:46:41;34.90;;;29.75;;
26620;SDS011;14253;44.840;10.444;2023-05-07T03:49:10;33.47;;;25.88;;
26620;SDS011;14253;44.840;10.444;2023-05-07T03:51:35;31.25;;;27.10;;
26620;SDS011;14253;44.840;10.444;2023-05-07T03:54:03;31.02;;;26.05;;
26620;SDS011;14253;44.840;10.444;2023-05-07T03:56:31;37.75;;;27.48;;
26620;SDS011;14253;44.840;10.444;2023-05-07T03:58:58;33.28;;;29.02;;
26620;SDS011;14253;44.840;10.444;2023-05-07T04:01:24;35.50;;;28.67;;
26620;SDS011;14253;44.840;10.444;2023-05-07T04:03:50;33.97;;;29.48;;
26620;SDS011;14253;44.840;10.444;2023-05-07T04:06:16;29.73;;;25.42;;
26620;SDS011;14253;44.840;10.444;2023-05-07T04:08:47;36.15;;;27.63;;
26620;SDS011;14253;44.840;10.444;2023-05-07T04:11:13;35.83;;;28.30;;
26620;SDS011;14253;44.840;10.444;2023-05-07T04:13:39;38.03;;;27.63;;
26620;SDS011;14253;44.840;10.444;2023-05-07T04:16:07;33.05;;;27.70;;
26620;SDS011;14253;44.840;10.444;2023-05-07T04:18:35;38.97;;;28.60;;
26620;SDS011;14253;44.840;10.444;2023-05-07T04:21:01;37.47;;;29.17;;
26620;SDS011;14253;44.840;10.444;2023-05-07T04:23:27;34.30;;;26.77;;
26620;SDS011;14253;44.840;10.444;2023-05-07T04:25:54;33.50;;;26.33;;
26620;SDS011;14253;44.840;10.444;2023-05-07T04:28:29;33.85;;;26.58;;
26620;SDS011;14253;44.840;10.444;2023-05-07T04:30:58;32.38;;;25.02;;
26620;SDS011;14253;44.840;10.444;2023-05-07T04:33:24;37.70;;;25.98;;
26620;SDS011;14253;44.840;10.444;2023-05-07T04:35:51;30.25;;;24.35;;
26620;SDS011;14253;44.840;10.444;2023-05-07T04:38:17;29.58;;;23.95;;
26620;SDS011;14253;44.840;10.444;2023-05-07T04:40:44;31.17;;;21.98;;
26620;SDS011;14253;44.840;10.444;2023-05-07T04:43:16;25.67;;;20.25;;
26620;SDS011;14253;44.840;10.444;2023-05-07T04:45:46;24.20;;;18.35;;
26620;SDS011;14253;44.840;10.444;2023-05-07T04:48:14;24.95;;;17.23;;
26620;SDS011;14253;44.840;10.444;2023-05-07T04:50:41;20.98;;;17.65;;
26620;SDS011;14253;44.840;10.444;2023-05-07T04:53:08;19.83;;;16.30;;
26620;SDS011;14253;44.840;10.444;2023-05-07T04:55:34;21.30;;;14.95;;
26620;SDS011;14253;44.840;10.444;2023-05-07T04:58:01;17.13;;;13.88;;
26620;SDS011;14253;44.840;10.444;2023-05-07T05:00:29;17.15;;;14.43;;
26620;SDS011;14253;44.840;10.444;2023-05-07T05:02:56;19.70;;;13.40;;
26620;SDS011;14253;44.840;10.444;2023-05-07T05:05:22;16.45;;;12.82;;
26620;SDS011;14253;44.840;10.444;2023-05-07T05:07:51;17.02;;;12.43;;
26620;SDS011;14253;44.840;10.444;2023-05-07T05:10:17;12.52;;;10.60;;
26620;SDS011;14253;44.840;10.444;2023-05-07T05:12:44;13.30;;;10.57;;
26620;SDS011;14253;44.840;10.444;2023-05-07T05:15:11;12.00;;;10.20;;
26620;SDS011;14253;44.840;10.444;2023-05-07T05:17:38;10.45;;;9.35;;
26620;SDS011;14253;44.840;10.444;2023-05-07T05:20:06;12.88;;;9.57;;
26620;SDS011;14253;44.840;10.444;2023-05-07T05:22:35;15.45;;;10.02;;
26620;SDS011;14253;44.840;10.444;2023-05-07T05:25:01;13.75;;;10.23;;
26620;SDS011;14253;44.840;10.444;2023-05-07T05:27:27;13.15;;;9.45;;
26620;SDS011;14253;44.840;10.444;2023-05-07T05:29:54;14.82;;;10.27;;
26620;SDS011;14253;44.840;10.444;2023-05-07T05:32:20;14.05;;;9.10;;
26620;SDS011;14253;44.840;10.444;2023-05-07T05:34:48;12.80;;;9.02;;
26620;SDS011;14253;44.840;10.444;2023-05-07T05:37:13;9.73;;;8.45;;
26620;SDS011;14253;44.840;10.444;2023-05-07T05:39:40;10.55;;;8.75;;
26620;SDS011;14253;44.840;10.444;2023-05-07T05:42:08;9.05;;;8.10;;
26620;SDS011;14253;44.840;10.444;2023-05-07T05:44:35;13.68;;;8.63;;
26620;SDS011;14253;44.840;10.444;2023-05-07T05:47:01;12.88;;;8.88;;
26620;SDS011;14253;44.840;10.444;2023-05-07T05:49:28;12.15;;;8.25;;
26620;SDS011;14253;44.840;10.444;2023-05-07T05:51:54;13.40;;;10.07;;
26620;SDS011;14253;44.840;10.444;2023-05-07T05:54:23;12.23;;;8.55;;
26620;SDS011;14253;44.840;10.444;2023-05-07T05:56:48;11.77;;;9.15;;
26620;SDS011;14253;44.840;10.444;2023-05-07T05:59:15;13.57;;;9.85;;
26620;SDS011;14253;44.840;10.444;2023-05-07T06:01:42;12.45;;;9.45;;
26620;SDS011;14253;44.840;10.444;2023-05-07T06:04:07;13.18;;;9.77;;
26620;SDS011;14253;44.840;10.444;2023-05-07T06:06:34;13.65;;;9.38;;
26620;SDS011;14253;44.840;10.444;2023-05-07T06:09:01;14.23;;;11.68;;
26620;SDS011;14253;44.840;10.444;2023-05-07T06:11:34;15.90;;;12.55;;
26620;SDS011;14253;44.840;10.444;2023-05-07T06:14:00;16.45;;;12.45;;
26620;SDS011;14253;44.840;10.444;2023-05-07T06:16:28;20.48;;;16.30;;
26620;SDS011;14253;44.840;10.444;2023-05-07T06:18:54;20.42;;;15.48;;
26620;SDS011;14253;44.840;10.444;2023-05-07T06:21:20;21.08;;;17.67;;
26620;SDS011;14253;44.840;10.444;2023-05-07T06:23:47;22.45;;;17.40;;
26620;SDS011;14253;44.840;10.444;2023-05-07T06:26:13;23.23;;;16.85;;
26620;SDS011;14253;44.840;10.444;2023-05-07T06:28:42;22.42;;;17.92;;
26620;SDS011;14253;44.840;10.444;2023-05-07T06:31:19;25.55;;;18.83;;
26620;SDS011;14253;44.840;10.444;2023-05-07T06:33:51;24.23;;;18.60;;
26620;SDS011;14253;44.840;10.444;2023-05-07T06:36:18;22.77;;;18.17;;
26620;SDS011;14253;44.840;10.444;2023-05-07T06:38:45;24.52;;;19.73;;
26620;SDS011;14253;44.840;10.444;2023-05-07T06:41:11;23.98;;;20.15;;
26620;SDS011;14253;44.840;10.444;2023-05-07T06:43:38;27.00;;;19.85;;
26620;SDS011;14253;44.840;10.444;2023-05-07T06:46:27;24.25;;;20.73;;
26620;SDS011;14253;44.840;10.444;2023-05-07T06:48:53;24.70;;;20.23;;
26620;SDS011;14253;44.840;10.444;2023-05-07T06:51:19;23.10;;;20.42;;
26620;SDS011;14253;44.840;10.444;2023-05-07T06:53:46;23.23;;;19.88;;
26620;SDS011;14253;44.840;10.444;2023-05-07T06:56:12;27.00;;;20.23;;
26620;SDS011;14253;44.840;10.444;2023-05-07T06:58:38;23.95;;;20.65;;
26620;SDS011;14253;44.840;10.444;2023-05-07T07:01:05;22.73;;;19.55;;
26620;SDS011;14253;44.840;10.444;2023-05-07T07:03:32;23.58;;;20.58;;
26620;SDS011;14253;44.840;10.444;2023-05-07T07:05:58;24.13;;;19.48;;
26620;SDS011;14253;44.840;10.444;2023-05-07T07:08:25;27.10;;;21.52;;
26620;SDS011;14253;44.840;10.444;2023-05-07T07:10:51;24.63;;;21.33;;
26620;SDS011;14253;44.840;10.444;2023-05-07T07:13:17;28.70;;;20.77;;
26620;SDS011;14253;44.840;10.444;2023-05-07T07:15:43;24.25;;;20.67;;
26620;SDS011;14253;44.840;10.444;2023-05-07T07:18:09;24.67;;;20.48;;
26620;SDS011;14253;44.840;10.444;2023-05-07T07:20:36;27.23;;;21.75;;
26620;SDS011;14253;44.840;10.444;2023-05-07T07:23:03;25.02;;;20.13;;
26620;SDS011;14253;44.840;10.444;2023-05-07T07:25:29;26.33;;;20.92;;
26620;SDS011;14253;44.840;10.444;2023-05-07T07:27:55;27.95;;;21.85;;
26620;SDS011;14253;44.840;10.444;2023-05-07T07:30:24;22.73;;;20.10;;
26620;SDS011;14253;44.840;10.444;2023-05-07T07:32:51;23.35;;;20.70;;
26620;SDS011;14253;44.840;10.444;2023-05-07T07:35:18;26.15;;;20.77;;
26620;SDS011;14253;44.840;10.444;2023-05-07T07:37:46;22.63;;;19.88;;
26620;SDS011;14253;44.840;10.444;2023-05-07T07:40:15;22.15;;;19.70;;
26620;SDS011;14253;44.840;10.444;2023-05-07T07:42:42;22.40;;;19.27;;
26620;SDS011;14253;44.840;10.444;2023-05-07T07:45:08;23.17;;;19.10;;
26620;SDS011;14253;44.840;10.444;2023-05-07T07:47:39;22.83;;;20.17;;
26620;SDS011;14253;44.840;10.444;2023-05-07T07:50:06;21.85;;;19.40;;
26620;SDS011;14253;44.840;10.444;2023-05-07T07:52:33;20.42;;;18.23;;
26620;SDS011;14253;44.840;10.444;2023-05-07T07:54:59;22.15;;;19.70;;
26620;SDS011;14253;44.840;10.444;2023-05-07T07:57:25;22.88;;;20.20;;
26620;SDS011;14253;44.840;10.444;2023-05-07T07:59:51;21.17;;;18.92;;
26620;SDS011;14253;44.840;10.444;2023-05-07T08:02:18;23.08;;;19.88;;
26620;SDS011;14253;44.840;10.444;2023-05-07T08:04:45;23.02;;;18.90;;
26620;SDS011;14253;44.840;10.444;2023-05-07T08:07:11;20.90;;;18.58;;
26620;SDS011;14253;44.840;10.444;2023-05-07T08:09:40;21.80;;;18.48;;
26620;SDS011;14253;44.840;10.444;2023-05-07T08:12:07;24.27;;;19.15;;
26620;SDS011;14253;44.840;10.444;2023-05-07T08:14:34;22.25;;;19.80;;
26620;SDS011;14253;44.840;10.444;2023-05-07T08:17:02;21.00;;;18.23;;
26620;SDS011;14253;44.840;10.444;2023-05-07T08:19:29;18.55;;;16.58;;
26620;SDS011;14253;44.840;10.444;2023-05-07T08:21:55;20.45;;;17.95;;
26620;SDS011;14253;44.840;10.444;2023-05-07T08:24:23;21.42;;;17.50;;
26620;SDS011;14253;44.840;10.444;2023-05-07T08:26:49;20.92;;;17.98;;
26620;SDS011;14253;44.840;10.444;2023-05-07T08:29:15;20.50;;;16.73;;
26620;SDS011;14253;44.840;10.444;2023-05-07T08:31:42;19.73;;;17.42;;
26620;SDS011;14253;44.840;10.444;2023-05-07T08:34:08;20.23;;;16.60;;
26620;SDS011;14253;44.840;10.444;2023-05-07T08:36:36;18.48;;;16.15;;
26620;SDS011;14253;44.840;10.444;2023-05-07T08:39:02;25.10;;;17.00;;
26620;SDS011;14253;44.840;10.444;2023-05-07T08:41:30;16.63;;;14.88;;
26620;SDS011;14253;44.840;10.444;2023-05-07T08:43:57;17.67;;;15.77;;
26620;SDS011;14253;44.840;10.444;2023-05-07T08:46:25;16.52;;;14.48;;
26620;SDS011;14253;44.840;10.444;2023-05-07T08:48:56;19.63;;;14.70;;
26620;SDS011;14253;44.840;10.444;2023-05-07T08:51:22;18.17;;;14.90;;
26620;SDS011;14253;44.840;10.444;2023-05-07T08:53:49;15.55;;;13.95;;
26620;SDS011;14253;44.840;10.444;2023-05-07T08:56:21;14.75;;;13.23;;
26620;SDS011;14253;44.840;10.444;2023-05-07T08:58:48;14.10;;;12.70;;
26620;SDS011;14253;44.840;10.444;2023-05-07T09:01:15;16.92;;;14.80;;
26620;SDS011;14253;44.840;10.444;2023-05-07T09:03:44;18.92;;;14.07;;
26620;SDS011;14253;44.840;10.444;2023-05-07T09:06:13;17.63;;;13.57;;
26620;SDS011;14253;44.840;10.444;2023-05-07T09:08:39;14.35;;;11.95;;
26620;SDS011;14253;44.840;10.444;2023-05-07T09:11:07;18.67;;;15.63;;
26620;SDS011;14253;44.840;10.444;2023-05-07T09:13:33;17.25;;;13.95;;
26620;SDS011;14253;44.840;10.444;2023-05-07T09:16:13;15.18;;;12.73;;
26620;SDS011;14253;44.840;10.444;2023-05-07T09:18:42;15.63;;;14.02;;
26620;SDS011;14253;44.840;10.444;2023-05-07T09:21:11;15.90;;;14.30;;
26620;SDS011;14253;44.840;10.444;2023-05-07T09:23:41;15.68;;;13.40;;
26620;SDS011;14253;44.840;10.444;2023-05-07T09:26:08;14.45;;;12.77;;
26620;SDS011;14253;44.840;10.444;2023-05-07T09:28:41;16.25;;;14.50;;
26620;SDS011;14253;44.840;10.444;2023-05-07T09:31:10;14.15;;;12.15;;
26620;SDS011;14253;44.840;10.444;2023-05-07T09:33:37;16.92;;;12.77;;
26620;SDS011;14253;44.840;10.444;2023-05-07T09:36:05;15.23;;;13.63;;
26620;SDS011;14253;44.840;10.444;2023-05-07T09:38:34;15.00;;;13.00;;
26620;SDS011;14253;44.840;10.444;2023-05-07T09:41:02;14.43;;;12.93;;
26620;SDS011;14253;44.840;10.444;2023-05-07T09:43:54;15.30;;;13.80;;
26620;SDS011;14253;44.840;10.444;2023-05-07T09:46:27;15.25;;;13.70;;
26620;SDS011;14253;44.840;10.444;2023-05-07T09:48:59;14.20;;;12.43;;
26620;SDS011;14253;44.840;10.444;2023-05-07T09:51:30;14.40;;;12.02;;
26620;SDS011;14253;44.840;10.444;2023-05-07T09:54:02;15.77;;;13.52;;
26620;SDS011;14253;44.840;10.444;2023-05-07T09:56:33;14.07;;;12.68;;
26620;SDS011;14253;44.840;10.444;2023-05-07T09:59:05;12.65;;;11.35;;
26620;SDS011;14253;44.840;10.444;2023-05-07T10:01:32;16.33;;;12.43;;
26620;SDS011;14253;44.840;10.444;2023-05-07T10:04:01;13.13;;;11.48;;
26620;SDS011;14253;44.840;10.444;2023-05-07T10:06:36;13.40;;;11.98;;
26620;SDS011;14253;44.840;10.444;2023-05-07T10:09:04;12.85;;;11.32;;
26620;SDS011;14253;44.840;10.444;2023-05-07T10:11:34;13.50;;;11.15;;
26620;SDS011;14253;44.840;10.444;2023-05-07T10:14:02;13.60;;;11.33;;
26620;SDS011;14253;44.840;10.444;2023-05-07T10:16:32;13.25;;;11.48;;
26620;SDS011;14253;44.840;10.444;2023-05-07T10:19:04;13.55;;;9.10;;
26620;SDS011;14253;44.840;10.444;2023-05-07T10:21:34;10.98;;;9.23;;
26620;SDS011;14253;44.840;10.444;2023-05-07T10:24:14;13.27;;;9.65;;
26620;SDS011;14253;44.840;10.444;2023-05-07T10:26:47;11.52;;;8.68;;
26620;SDS011;14253;44.840;10.444;2023-05-07T10:29:17;11.13;;;9.27;;
26620;SDS011;14253;44.840;10.444;2023-05-07T10:34:36;12.07;;;9.65;;
26620;SDS011;14253;44.840;10.444;2023-05-07T10:37:06;12.00;;;9.02;;
26620;SDS011;14253;44.840;10.444;2023-05-07T10:39:34;10.40;;;8.48;;
26620;SDS011;14253;44.840;10.444;2023-05-07T10:42:09;11.82;;;8.93;;
26620;SDS011;14253;44.840;10.444;2023-05-07T10:44:43;12.75;;;8.68;;
26620;SDS011;14253;44.840;10.444;2023-05-07T10:47:17;9.60;;;8.68;;
26620;SDS011;14253;44.840;10.444;2023-05-07T10:52:22;8.57;;;7.32;;
26620;SDS011;14253;44.840;10.444;2023-05-07T10:57:56;11.45;;;8.30;;
26620;SDS011;14253;44.840;10.444;2023-05-07T11:00:58;9.07;;;7.07;;
26620;SDS011;14253;44.840;10.444;2023-05-07T11:03:31;8.57;;;7.70;;
26620;SDS011;14253;44.840;10.444;2023-05-07T11:06:15;8.68;;;7.28;;
26620;SDS011;14253;44.840;10.444;2023-05-07T11:08:54;22.25;;;15.70;;
26620;SDS011;14253;44.840;10.444;2023-05-07T11:11:46;8.23;;;7.43;;
26620;SDS011;14253;44.840;10.444;2023-05-07T11:17:13;10.55;;;7.15;;
26620;SDS011;14253;44.840;10.444;2023-05-07T11:19:54;9.45;;;8.00;;
26620;SDS011;14253;44.840;10.444;2023-05-07T11:25:30;11.13;;;8.00;;
26620;SDS011;14253;44.840;10.444;2023-05-07T11:28:08;8.07;;;7.18;;
26620;SDS011;14253;44.840;10.444;2023-05-07T11:30:40;10.48;;;7.22;;
26620;SDS011;14253;44.840;10.444;2023-05-07T11:33:09;9.73;;;7.97;;
26620;SDS011;14253;44.840;10.444;2023-05-07T11:35:42;10.65;;;9.60;;
26620;SDS011;14253;44.840;10.444;2023-05-07T11:38:14;9.30;;;8.32;;
26620;SDS011;14253;44.840;10.444;2023-05-07T11:40:49;8.75;;;7.72;;
26620;SDS011;14253;44.840;10.444;2023-05-07T11:43:17;9.75;;;6.85;;
26620;SDS011;14253;44.840;10.444;2023-05-07T11:45:43;10.55;;;8.65;;
26620;SDS011;14253;44.840;10.444;2023-05-07T11:48:13;8.73;;;7.85;;
26620;SDS011;14253;44.840;10.444;2023-05-07T11:53:25;11.75;;;10.60;;
26620;SDS011;14253;44.840;10.444;2023-05-07T11:55:53;13.85;;;12.38;;
26620;SDS011;14253;44.840;10.444;2023-05-07T11:58:23;13.82;;;11.13;;
26620;SDS011;14253;44.840;10.444;2023-05-07T12:00:51;12.32;;;10.90;;
26620;SDS011;14253;44.840;10.444;2023-05-07T12:03:17;13.40;;;10.75;;
26620;SDS011;14253;44.840;10.444;2023-05-07T12:05:44;14.32;;;12.82;;
26620;SDS011;14253;44.840;10.444;2023-05-07T12:08:14;11.93;;;10.73;;
26620;SDS011;14253;44.840;10.444;2023-05-07T12:10:45;14.65;;;11.20;;
26620;SDS011;14253;44.840;10.444;2023-05-07T12:13:21;13.48;;;10.82;;
26620;SDS011;14253;44.840;10.444;2023-05-07T12:15:51;11.57;;;10.32;;
26620;SDS011;14253;44.840;10.444;2023-05-07T12:18:18;10.70;;;9.68;;
26620;SDS011;14253;44.840;10.444;2023-05-07T12:20:45;10.32;;;7.70;;
26620;SDS011;14253;44.840;10.444;2023-05-07T12:23:12;10.05;;;7.93;;
26620;SDS011;14253;44.840;10.444;2023-05-07T12:28:14;8.88;;;7.97;;
26620;SDS011;14253;44.840;10.444;2023-05-07T12:30:42;12.30;;;9.35;;
26620;SDS011;14253;44.840;10.444;2023-05-07T12:33:09;6.97;;;6.18;;
26620;SDS011;14253;44.840;10.444;2023-05-07T12:35:37;8.25;;;6.22;;
26620;SDS011;14253;44.840;10.444;2023-05-07T12:38:15;8.25;;;6.93;;
26620;SDS011;14253;44.840;10.444;2023-05-07T12:40:46;7.40;;;6.60;;
26620;SDS011;14253;44.840;10.444;2023-05-07T12:45:48;5.72;;;5.13;;
26620;SDS011;14253;44.840;10.444;2023-05-07T12:48:15;19.95;;;6.40;;
26620;SDS011;14253;44.840;10.444;2023-05-07T12:50:42;7.20;;;5.93;;
26620;SDS011;14253;44.840;10.444;2023-05-07T12:53:09;5.68;;;5.10;;
26620;SDS011;14253;44.840;10.444;2023-05-07T12:55:42;4.88;;;4.38;;
26620;SDS011;14253;44.840;10.444;2023-05-07T12:58:20;7.85;;;6.22;;
26620;SDS011;14253;44.840;10.444;2023-05-07T13:00:48;7.50;;;5.45;;
26620;SDS011;14253;44.840;10.444;2023-05-07T13:03:22;5.90;;;4.90;;
26620;SDS011;14253;44.840;10.444;2023-05-07T13:05:57;7.60;;;4.72;;
26620;SDS011;14253;44.840;10.444;2023-05-07T13:08:35;5.78;;;4.13;;
26620;SDS011;14253;44.840;10.444;2023-05-07T13:11:07;5.63;;;4.78;;
26620;SDS011;14253;44.840;10.444;2023-05-07T13:13:34;7.38;;;5.32;;
26620;SDS011;14253;44.840;10.444;2023-05-07T13:16:02;6.18;;;4.50;;
26620;SDS011;14253;44.840;10.444;2023-05-07T13:18:29;5.63;;;4.50;;
26620;SDS011;14253;44.840;10.444;2023-05-07T13:20:56;6.97;;;4.05;;
26620;SDS011;14253;44.840;10.444;2023-05-07T13:23:22;6.15;;;4.10;;
26620;SDS011;14253;44.840;10.444;2023-05-07T13:25:48;10.10;;;5.10;;
26620;SDS011;14253;44.840;10.444;2023-05-07T13:28:16;4.95;;;3.80;;
26620;SDS011;14253;44.840;10.444;2023-05-07T13:30:42;4.85;;;4.32;;
26620;SDS011;14253;44.840;10.444;2023-05-07T13:33:09;5.30;;;3.42;;
26620;SDS011;14253;44.840;10.444;2023-05-07T13:35:35;7.30;;;4.18;;
26620;SDS011;14253;44.840;10.444;2023-05-07T13:38:01;5.60;;;3.55;;
26620;SDS011;14253;44.840;10.444;2023-05-07T13:40:27;7.35;;;3.35;;
26620;SDS011;14253;44.840;10.444;2023-05-07T13:42:53;4.53;;;3.35;;
26620;SDS011;14253;44.840;10.444;2023-05-07T13:45:21;4.68;;;3.45;;
26620;SDS011;14253;44.840;10.444;2023-05-07T13:47:50;4.07;;;3.22;;
26620;SDS011;14253;44.840;10.444;2023-05-07T13:50:17;4.13;;;3.70;;
26620;SDS011;14253;44.840;10.444;2023-05-07T13:52:43;5.55;;;3.58;;
26620;SDS011;14253;44.840;10.444;2023-05-07T13:55:19;5.00;;;4.00;;
26620;SDS011;14253;44.840;10.444;2023-05-07T13:57:46;5.57;;;4.28;;
26620;SDS011;14253;44.840;10.444;2023-05-07T14:00:13;6.88;;;5.07;;
26620;SDS011;14253;44.840;10.444;2023-05-07T14:02:40;5.53;;;4.32;;
26620;SDS011;14253;44.840;10.444;2023-05-07T14:05:06;6.68;;;4.30;;
26620;SDS011;14253;44.840;10.444;2023-05-07T14:07:34;6.53;;;4.85;;
26620;SDS011;14253;44.840;10.444;2023-05-07T14:10:00;6.55;;;3.83;;
26620;SDS011;14253;44.840;10.444;2023-05-07T14:12:26;5.25;;;4.20;;
26620;SDS011;14253;44.840;10.444;2023-05-07T14:14:52;5.53;;;4.47;;
26620;SDS011;14253;44.840;10.444;2023-05-07T14:17:18;4.15;;;3.40;;
26620;SDS011;14253;44.840;10.444;2023-05-07T14:19:45;10.88;;;4.47;;
26620;SDS011;14253;44.840;10.444;2023-05-07T14:22:12;5.88;;;4.35;;
26620;SDS011;14253;44.840;10.444;2023-05-07T14:24:40;6.95;;;4.05;;
26620;SDS011;14253;44.840;10.444;2023-05-07T14:27:06;7.70;;;5.55;;
26620;SDS011;14253;44.840;10.444;2023-05-07T14:29:32;6.75;;;5.30;;
26620;SDS011;14253;44.840;10.444;2023-05-07T14:32:00;5.90;;;5.28;;
26620;SDS011;14253;44.840;10.444;2023-05-07T14:34:27;8.63;;;5.72;;
26620;SDS011;14253;44.840;10.444;2023-05-07T14:36:53;6.13;;;5.13;;
26620;SDS011;14253;44.840;10.444;2023-05-07T14:39:20;6.93;;;4.53;;
26620;SDS011;14253;44.840;10.444;2023-05-07T14:41:46;5.57;;;4.40;;
26620;SDS011;14253;44.840;10.444;2023-05-07T14:44:12;5.85;;;4.60;;